sensor_id;sensor_type;location;lat;lon;timestamp;pressure;altitude;pressure_sealevel;temperature;humidity
65758;BME280;52495;52.208;5.158;2023-04-16T00:02:01;102180.44;;;8.02;100.00
65758;BME280;52495;52.208;5.158;2023-04-16T00:04:27;102180.56;;;8.12;100.00
65758;BME280;52495;52.208;5.158;2023-04-16T00:06:54;102186.31;;;7.94;100.00
65758;BME280;52495;52.208;5.158;2023-04-16T00:09:22;102178.09;;;8.18;100.00
65758;BME280;52495;52.208;5.158;2023-04-16T00:11:49;102177.88;;;8.05;100.00
65758;BME280;52495;52.208;5.158;2023-04-16T00:14:16;102168.59;;;8.15;100.00
65758;BME280;52495;52.208;5.158;2023-04-16T00:16:43;102179.81;;;8.19;100.00
65758;BME280;52495;52.208;5.158;2023-04-16T00:19:10;102182.03;;;7.96;100.00
65758;BME280;52495;52.208;5.158;2023-04-16T00:21:37;102176.38;;;8.17;100.00
65758;BME280;52495;52.208;5.158;2023-04-16T00:24:04;102182.28;;;8.11;100.00
65758;BME280;52495;52.208;5.158;2023-04-16T00:26:32;102179.63;;;8.05;100.00
65758;BME280;52495;52.208;5.158;2023-04-16T00:28:59;102191.47;;;7.95;100.00
65758;BME280;52495;52.208;5.158;2023-04-16T00:31:27;102177.94;;;8.07;100.00
65758;BME280;52495;52.208;5.158;2023-04-16T00:33:55;102181.28;;;8.03;100.00
65758;BME280;52495;52.208;5.158;2023-04-16T00:36:22;102182.16;;;8.03;100.00
65758;BME280;52495;52.208;5.158;2023-04-16T00:38:49;102186.16;;;7.84;100.00
65758;BME280;52495;52.208;5.158;2023-04-16T00:41:16;102183.25;;;8.19;100.00
65758;BME280;52495;52.208;5.158;2023-04-16T00:43:44;102178.09;;;8.19;100.00
65758;BME280;52495;52.208;5.158;2023-04-16T00:46:11;102168.59;;;8.15;100.00
65758;BME280;52495;52.208;5.158;2023-04-16T00:48:39;102172.13;;;8.20;100.00
65758;BME280;52495;52.208;5.158;2023-04-16T00:51:07;102172.75;;;8.04;100.00
65758;BME280;52495;52.208;5.158;2023-04-16T00:53:34;102171.22;;;8.17;100.00
65758;BME280;52495;52.208;5.158;2023-04-16T00:56:02;102178.94;;;8.17;100.00
65758;BME280;52495;52.208;5.158;2023-04-16T00:58:29;102187.59;;;8.25;100.00
65758;BME280;52495;52.208;5.158;2023-04-16T01:00:58;102181.72;;;8.32;100.00
65758;BME280;52495;52.208;5.158;2023-04-16T01:03:31;102183.28;;;8.23;100.00
65758;BME280;52495;52.208;5.158;2023-04-16T01:06:00;102178.03;;;8.15;100.00
65758;BME280;52495;52.208;5.158;2023-04-16T01:08:27;102185.97;;;8.30;100.00
65758;BME280;52495;52.208;5.158;2023-04-16T01:10:54;102178.16;;;8.24;100.00
65758;BME280;52495;52.208;5.158;2023-04-16T01:13:21;102181.66;;;8.28;100.00
65758;BME280;52495;52.208;5.158;2023-04-16T01:15:48;102174.69;;;8.20;100.00
65758;BME280;52495;52.208;5.158;2023-04-16T01:18:17;102181.72;;;8.34;100.00
65758;BME280;52495;52.208;5.158;2023-04-16T01:20:47;102180.94;;;8.37;100.00
65758;BME280;52495;52.208;5.158;2023-04-16T01:23:14;102179.22;;;8.39;100.00
65758;BME280;52495;52.208;5.158;2023-04-16T01:25:40;102187.78;;;8.38;100.00
65758;BME280;52495;52.208;5.158;2023-04-16T01:28:07;102189.50;;;8.35;100.00
65758;BME280;52495;52.208;5.158;2023-04-16T01:30:34;102181.03;;;8.46;100.00
65758;BME280;52495;52.208;5.158;2023-04-16T01:33:10;102185.97;;;8.32;100.00
65758;BME280;52495;52.208;5.158;2023-04-16T01:35:37;102195.59;;;8.42;100.00
65758;BME280;52495;52.208;5.158;2023-04-16T01:38:08;102186.97;;;8.42;100.00
65758;BME280;52495;52.208;5.158;2023-04-16T01:40:36;102193.81;;;8.40;100.00
65758;BME280;52495;52.208;5.158;2023-04-16T01:43:03;102176.00;;;8.52;100.00
65758;BME280;52495;52.208;5.158;2023-04-16T01:45:31;102186.19;;;8.47;100.00
65758;BME280;52495;52.208;5.158;2023-04-16T01:47:57;102193.19;;;8.53;100.00
65758;BME280;52495;52.208;5.158;2023-04-16T01:50:24;102193.16;;;8.52;100.00
65758;BME280;52495;52.208;5.158;2023-04-16T01:52:51;102199.19;;;8.55;100.00
65758;BME280;52495;52.208;5.158;2023-04-16T01:55:19;102192.19;;;8.46;100.00
65758;BME280;52495;52.208;5.158;2023-04-16T01:57:46;102195.53;;;8.41;100.00
65758;BME280;52495;52.208;5.158;2023-04-16T02:00:14;102195.59;;;8.44;100.00
65758;BME280;52495;52.208;5.158;2023-04-16T02:02:44;102191.19;;;8.33;100.00
65758;BME280;52495;52.208;5.158;2023-04-16T02:05:16;102190.19;;;8.25;100.00
65758;BME280;52495;52.208;5.158;2023-04-16T02:07:45;102192.97;;;8.41;100.00
65758;BME280;52495;52.208;5.158;2023-04-16T02:10:12;102188.66;;;8.37;100.00
65758;BME280;52495;52.208;5.158;2023-04-16T02:12:40;102191.34;;;8.47;100.00
65758;BME280;52495;52.208;5.158;2023-04-16T02:15:08;102199.19;;;8.55;100.00
65758;BME280;52495;52.208;5.158;2023-04-16T02:17:35;102203.53;;;8.59;100.00
65758;BME280;52495;52.208;5.158;2023-04-16T02:20:09;102190.97;;;8.21;100.00
65758;BME280;52495;52.208;5.158;2023-04-16T02:22:41;102204.88;;;8.34;100.00
65758;BME280;52495;52.208;5.158;2023-04-16T02:25:12;102198.69;;;8.21;100.00
65758;BME280;52495;52.208;5.158;2023-04-16T02:27:41;102200.53;;;8.30;100.00
65758;BME280;52495;52.208;5.158;2023-04-16T02:30:27;102204.09;;;8.38;100.00
65758;BME280;52495;52.208;5.158;2023-04-16T02:32:55;102206.72;;;8.43;100.00
65758;BME280;52495;52.208;5.158;2023-04-16T02:35:22;102200.53;;;8.27;100.00
65758;BME280;52495;52.208;5.158;2023-04-16T02:37:48;102200.47;;;8.25;100.00
65758;BME280;52495;52.208;5.158;2023-04-16T02:40:15;102204.16;;;8.41;100.00
65758;BME280;52495;52.208;5.158;2023-04-16T02:42:44;102203.16;;;8.31;100.00
65758;BME280;52495;52.208;5.158;2023-04-16T02:45:11;102204.94;;;8.39;100.00
65758;BME280;52495;52.208;5.158;2023-04-16T02:47:38;102201.16;;;8.12;100.00
65758;BME280;52495;52.208;5.158;2023-04-16T02:50:06;102201.41;;;8.30;100.00
65758;BME280;52495;52.208;5.158;2023-04-16T02:52:33;102198.94;;;8.38;100.00
65758;BME280;52495;52.208;5.158;2023-04-16T02:54:59;102201.41;;;8.30;100.00
65758;BME280;52495;52.208;5.158;2023-04-16T02:57:26;102202.25;;;8.28;100.00
65758;BME280;52495;52.208;5.158;2023-04-16T02:59:54;102211.38;;;8.07;100.00
65758;BME280;52495;52.208;5.158;2023-04-16T03:02:21;102208.72;;;8.02;100.00
65758;BME280;52495;52.208;5.158;2023-04-16T03:04:48;102209.09;;;8.27;100.00
65758;BME280;52495;52.208;5.158;2023-04-16T03:07:15;102209.81;;;8.20;100.00
65758;BME280;52495;52.208;5.158;2023-04-16T03:09:42;102207.31;;;8.23;100.00
65758;BME280;52495;52.208;5.158;2023-04-16T03:12:09;102213.06;;;8.05;100.00
65758;BME280;52495;52.208;5.158;2023-04-16T03:14:37;102222.44;;;8.01;100.00
65758;BME280;52495;52.208;5.158;2023-04-16T03:17:05;102216.44;;;8.02;100.00
65758;BME280;52495;52.208;5.158;2023-04-16T03:19:32;102219.31;;;8.23;100.00
65758;BME280;52495;52.208;5.158;2023-04-16T03:21:58;102229.09;;;7.90;100.00
65758;BME280;52495;52.208;5.158;2023-04-16T03:24:25;102225.00;;;8.01;100.00
65758;BME280;52495;52.208;5.158;2023-04-16T03:26:52;102223.09;;;7.91;100.00
65758;BME280;52495;52.208;5.158;2023-04-16T03:29:22;102219.03;;;8.02;100.00
65758;BME280;52495;52.208;5.158;2023-04-16T03:31:48;102221.66;;;8.07;100.00
65758;BME280;52495;52.208;5.158;2023-04-16T03:34:17;102215.81;;;8.17;100.00
65758;BME280;52495;52.208;5.158;2023-04-16T03:36:44;102226.09;;;8.16;100.00
65758;BME280;52495;52.208;5.158;2023-04-16T03:39:11;102223.28;;;8.03;100.00
65758;BME280;52495;52.208;5.158;2023-04-16T03:41:38;102225.09;;;8.08;100.00
65758;BME280;52495;52.208;5.158;2023-04-16T03:44:04;102217.28;;;8.01;100.00
65758;BME280;52495;52.208;5.158;2023-04-16T03:46:32;102227.75;;;8.14;100.00
65758;BME280;52495;52.208;5.158;2023-04-16T03:48:59;102227.72;;;8.12;100.00
65758;BME280;52495;52.208;5.158;2023-04-16T03:51:28;102231.19;;;8.14;100.00
65758;BME280;52495;52.208;5.158;2023-04-16T03:53:55;102234.72;;;8.21;100.00
65758;BME280;52495;52.208;5.158;2023-04-16T03:56:23;102231.25;;;8.17;100.00
65758;BME280;52495;52.208;5.158;2023-04-16T03:58:51;102230.50;;;8.26;100.00
65758;BME280;52495;52.208;5.158;2023-04-16T04:01:18;102229.50;;;8.15;100.00
65758;BME280;52495;52.208;5.158;2023-04-16T04:03:45;102233.97;;;8.30;100.00
65758;BME280;52495;52.208;5.158;2023-04-16T04:06:12;102237.28;;;8.19;100.00
65758;BME280;52495;52.208;5.158;2023-04-16T04:08:40;102244.56;;;7.93;100.00
65758;BME280;52495;52.208;5.158;2023-04-16T04:11:07;102235.53;;;8.17;100.00
65758;BME280;52495;52.208;5.158;2023-04-16T04:13:35;102239.63;;;8.05;100.00
65758;BME280;52495;52.208;5.158;2023-04-16T04:16:03;102232.88;;;8.12;100.00
65758;BME280;52495;52.208;5.158;2023-04-16T04:18:30;102233.63;;;8.07;100.00
65758;BME280;52495;52.208;5.158;2023-04-16T04:20:58;102228.44;;;8.02;100.00
65758;BME280;52495;52.208;5.158;2023-04-16T04:23:28;102228.78;;;8.25;100.00
65758;BME280;52495;52.208;5.158;2023-04-16T04:25:56;102234.63;;;8.15;100.00
65758;BME280;52495;52.208;5.158;2023-04-16T04:28:24;102234.81;;;8.26;100.00
65758;BME280;52495;52.208;5.158;2023-04-16T04:30:51;102239.97;;;8.27;100.00
65758;BME280;52495;52.208;5.158;2023-04-16T04:33:18;102237.34;;;8.24;100.00
65758;BME280;52495;52.208;5.158;2023-04-16T04:35:46;102239.00;;;8.19;100.00
65758;BME280;52495;52.208;5.158;2023-04-16T04:38:14;102241.53;;;8.17;100.00
65758;BME280;52495;52.208;5.158;2023-04-16T04:40:45;102236.38;;;8.17;100.00
65758;BME280;52495;52.208;5.158;2023-04-16T04:43:15;102234.75;;;8.23;100.00
65758;BME280;52495;52.208;5.158;2023-04-16T04:45:42;102245.09;;;8.26;100.00
65758;BME280;52495;52.208;5.158;2023-04-16T04:48:09;102251.94;;;8.25;100.00
65758;BME280;52495;52.208;5.158;2023-04-16T04:50:35;102246.09;;;8.35;100.00
65758;BME280;52495;52.208;5.158;2023-04-16T04:53:02;102254.63;;;8.33;100.00
65758;BME280;52495;52.208;5.158;2023-04-16T04:55:34;102254.63;;;8.31;100.00
65758;BME280;52495;52.208;5.158;2023-04-16T04:58:02;102258.88;;;8.29;100.00
65758;BME280;52495;52.208;5.158;2023-04-16T05:00:30;102258.94;;;8.34;100.00
65758;BME280;52495;52.208;5.158;2023-04-16T05:03:00;102256.06;;;8.15;100.00
65758;BME280;52495;52.208;5.158;2023-04-16T05:05:27;102259.72;;;8.30;100.00
65758;BME280;52495;52.208;5.158;2023-04-16T05:07:54;102263.13;;;8.29;100.00
65758;BME280;52495;52.208;5.158;2023-04-16T05:10:20;102261.28;;;8.18;100.00
65758;BME280;52495;52.208;5.158;2023-04-16T05:12:47;102263.91;;;8.22;100.00
65758;BME280;52495;52.208;5.158;2023-04-16T05:15:15;102261.44;;;8.29;100.00
65758;BME280;52495;52.208;5.158;2023-04-16T05:17:43;102272.13;;;8.00;100.00
65758;BME280;52495;52.208;5.158;2023-04-16T05:20:11;102274.84;;;8.08;100.00
65758;BME280;52495;52.208;5.158;2023-04-16T05:22:37;102264.75;;;8.20;100.00
65758;BME280;52495;52.208;5.158;2023-04-16T05:25:05;102266.59;;;8.31;100.00
65758;BME280;52495;52.208;5.158;2023-04-16T05:27:31;102264.91;;;8.31;100.00
65758;BME280;52495;52.208;5.158;2023-04-16T05:29:58;102269.22;;;8.32;100.00
65758;BME280;52495;52.208;5.158;2023-04-16T05:32:25;102270.78;;;8.23;100.00
65758;BME280;52495;52.208;5.158;2023-04-16T05:34:53;102272.69;;;8.38;100.00
65758;BME280;52495;52.208;5.158;2023-04-16T05:37:20;102275.25;;;8.36;100.00
65758;BME280;52495;52.208;5.158;2023-04-16T05:39:47;102272.75;;;8.39;100.00
65758;BME280;52495;52.208;5.158;2023-04-16T05:42:13;102277.19;;;8.48;100.00
65758;BME280;52495;52.208;5.158;2023-04-16T05:44:40;102282.34;;;8.48;100.00
65758;BME280;52495;52.208;5.158;2023-04-16T05:47:07;102282.34;;;8.49;100.00
65758;BME280;52495;52.208;5.158;2023-04-16T05:49:34;102277.09;;;8.45;100.00
65758;BME280;52495;52.208;5.158;2023-04-16T05:52:03;102277.25;;;8.54;100.00
65758;BME280;52495;52.208;5.158;2023-04-16T05:54:30;102281.50;;;8.49;100.00
65758;BME280;52495;52.208;5.158;2023-04-16T05:56:57;102281.63;;;8.57;100.00
65758;BME280;52495;52.208;5.158;2023-04-16T05:59:24;102279.81;;;8.51;100.00
65758;BME280;52495;52.208;5.158;2023-04-16T06:01:51;102281.63;;;8.57;100.00
65758;BME280;52495;52.208;5.158;2023-04-16T06:04:18;102276.47;;;8.57;100.00
65758;BME280;52495;52.208;5.158;2023-04-16T06:06:44;102281.63;;;8.57;100.00
65758;BME280;52495;52.208;5.158;2023-04-16T06:09:12;102295.38;;;8.60;100.00
65758;BME280;52495;52.208;5.158;2023-04-16T06:11:39;102292.44;;;8.39;100.00
65758;BME280;52495;52.208;5.158;2023-04-16T06:14:06;102298.75;;;8.56;100.00
65758;BME280;52495;52.208;5.158;2023-04-16T06:16:33;102291.84;;;8.52;100.00
65758;BME280;52495;52.208;5.158;2023-04-16T06:18:59;102294.06;;;8.32;100.00
65758;BME280;52495;52.208;5.158;2023-04-16T06:21:27;102301.16;;;8.47;100.00
65758;BME280;52495;52.208;5.158;2023-04-16T06:23:54;102304.66;;;8.49;100.00
65758;BME280;52495;52.208;5.158;2023-04-16T06:26:22;102302.00;;;8.46;100.00
65758;BME280;52495;52.208;5.158;2023-04-16T06:28:49;102303.00;;;8.54;100.00
65758;BME280;52495;52.208;5.158;2023-04-16T06:31:16;102298.63;;;8.48;100.00
65758;BME280;52495;52.208;5.158;2023-04-16T06:33:42;102306.31;;;8.47;100.00
65758;BME280;52495;52.208;5.158;2023-04-16T06:36:09;102315.88;;;8.53;100.00
65758;BME280;52495;52.208;5.158;2023-04-16T06:38:36;102313.34;;;8.56;100.00
65758;BME280;52495;52.208;5.158;2023-04-16T06:41:04;102311.78;;;8.67;100.00
65758;BME280;52495;52.208;5.158;2023-04-16T06:43:37;102315.19;;;8.64;100.00
65758;BME280;52495;52.208;5.158;2023-04-16T06:46:08;102310.97;;;8.70;100.00
65758;BME280;52495;52.208;5.158;2023-04-16T06:48:35;102317.81;;;8.68;100.00
65758;BME280;52495;52.208;5.158;2023-04-16T06:51:03;102318.31;;;8.46;100.00
65758;BME280;52495;52.208;5.158;2023-04-16T06:53:30;102321.75;;;8.47;100.00
65758;BME280;52495;52.208;5.158;2023-04-16T06:55:57;102317.59;;;8.52;100.00
65758;BME280;52495;52.208;5.158;2023-04-16T06:58:24;102319.03;;;8.38;100.00
65758;BME280;52495;52.208;5.158;2023-04-16T07:00:53;102322.00;;;8.61;100.00
65758;BME280;52495;52.208;5.158;2023-04-16T07:03:27;102319.44;;;8.61;100.00
65758;BME280;52495;52.208;5.158;2023-04-16T07:05:55;102334.06;;;8.63;100.00
65758;BME280;52495;52.208;5.158;2023-04-16T07:08:21;102333.94;;;8.57;100.00
65758;BME280;52495;52.208;5.158;2023-04-16T07:10:49;102334.00;;;8.59;100.00
65758;BME280;52495;52.208;5.158;2023-04-16T07:13:17;102335.47;;;8.46;100.00
65758;BME280;52495;52.208;5.158;2023-04-16T07:15:43;102340.06;;;8.64;100.00
65758;BME280;52495;52.208;5.158;2023-04-16T07:18:12;102343.41;;;8.57;100.00
65758;BME280;52495;52.208;5.158;2023-04-16T07:20:39;102344.41;;;8.68;100.00
65758;BME280;52495;52.208;5.158;2023-04-16T07:23:05;102341.72;;;8.60;100.00
65758;BME280;52495;52.208;5.158;2023-04-16T07:25:32;102339.31;;;8.73;100.00
65758;BME280;52495;52.208;5.158;2023-04-16T07:27:59;102344.25;;;8.57;100.00
65758;BME280;52495;52.208;5.158;2023-04-16T07:30:26;102349.66;;;8.74;100.00
65758;BME280;52495;52.208;5.158;2023-04-16T07:32:58;102351.91;;;8.54;100.00
65758;BME280;52495;52.208;5.158;2023-04-16T07:35:26;102346.13;;;8.68;100.00
65758;BME280;52495;52.208;5.158;2023-04-16T07:37:53;102353.97;;;8.75;100.00
65758;BME280;52495;52.208;5.158;2023-04-16T07:40:20;102353.75;;;8.61;100.00
65758;BME280;52495;52.208;5.158;2023-04-16T07:42:46;102355.06;;;8.38;100.00
65758;BME280;52495;52.208;5.158;2023-04-16T07:45:13;102361.53;;;8.64;100.00
65758;BME280;52495;52.208;5.158;2023-04-16T07:47:40;102356.44;;;8.68;100.00
65758;BME280;52495;52.208;5.158;2023-04-16T07:50:07;102363.41;;;8.75;100.00
65758;BME280;52495;52.208;5.158;2023-04-16T07:52:36;102359.97;;;8.74;100.00
65758;BME280;52495;52.208;5.158;2023-04-16T07:55:06;102364.09;;;8.64;100.00
65758;BME280;52495;52.208;5.158;2023-04-16T07:57:33;102366.97;;;8.85;100.00
65758;BME280;52495;52.208;5.158;2023-04-16T07:59:59;102366.22;;;8.92;100.00
65758;BME280;52495;52.208;5.158;2023-04-16T08:02:38;102370.59;;;8.98;100.00
65758;BME280;52495;52.208;5.158;2023-04-16T08:05:06;102368.03;;;8.96;100.00
65758;BME280;52495;52.208;5.158;2023-04-16T08:07:33;102377.44;;;8.94;100.00
65758;BME280;52495;52.208;5.158;2023-04-16T08:10:02;102373.22;;;9.01;100.00
65758;BME280;52495;52.208;5.158;2023-04-16T08:12:29;102379.00;;;8.84;100.00
65758;BME280;52495;52.208;5.158;2023-04-16T08:14:56;102384.81;;;8.71;100.00
65758;BME280;52495;52.208;5.158;2023-04-16T08:17:23;102389.31;;;8.86;100.00
65758;BME280;52495;52.208;5.158;2023-04-16T08:19:52;102382.69;;;9.02;100.00
65758;BME280;52495;52.208;5.158;2023-04-16T08:22:19;102383.50;;;8.99;100.00
65758;BME280;52495;52.208;5.158;2023-04-16T08:24:46;102379.00;;;8.84;100.00
65758;BME280;52495;52.208;5.158;2023-04-16T08:27:14;102387.81;;;9.00;100.00
65758;BME280;52495;52.208;5.158;2023-04-16T08:29:41;102385.19;;;8.97;100.00
65758;BME280;52495;52.208;5.158;2023-04-16T08:32:08;102383.59;;;9.05;100.00
65758;BME280;52495;52.208;5.158;2023-04-16T08:34:35;102385.25;;;9.02;100.00
65758;BME280;52495;52.208;5.158;2023-04-16T08:37:02;102388.81;;;9.10;100.00
65758;BME280;52495;52.208;5.158;2023-04-16T08:39:29;102390.53;;;9.11;100.00
65758;BME280;52495;52.208;5.158;2023-04-16T08:41:57;102397.41;;;9.12;100.00
65758;BME280;52495;52.208;5.158;2023-04-16T08:44:27;102397.22;;;8.98;100.00
65758;BME280;52495;52.208;5.158;2023-04-16T08:46:56;102403.47;;;9.13;100.00
65758;BME280;52495;52.208;5.158;2023-04-16T08:49:24;102411.81;;;8.99;100.00
65758;BME280;52495;52.208;5.158;2023-04-16T08:51:52;102409.44;;;9.11;100.00
65758;BME280;52495;52.208;5.158;2023-04-16T08:54:29;102402.47;;;9.03;100.00
65758;BME280;52495;52.208;5.158;2023-04-16T08:56:57;102410.19;;;9.03;100.00
65758;BME280;52495;52.208;5.158;2023-04-16T08:59:27;102417.19;;;9.15;100.00
65758;BME280;52495;52.208;5.158;2023-04-16T09:01:56;102413.78;;;9.16;100.00
65758;BME280;52495;52.208;5.158;2023-04-16T09:04:25;102420.75;;;9.21;100.00
65758;BME280;52495;52.208;5.158;2023-04-16T09:06:53;102425.66;;;9.06;100.00
65758;BME280;52495;52.208;5.158;2023-04-16T09:09:20;102424.81;;;9.04;100.00
65758;BME280;52495;52.208;5.158;2023-04-16T09:11:50;102430.13;;;9.18;100.00
65758;BME280;52495;52.208;5.158;2023-04-16T09:14:18;102426.81;;;9.26;100.00
65758;BME280;52495;52.208;5.158;2023-04-16T09:16:50;102423.28;;;9.20;100.00
65758;BME280;52495;52.208;5.158;2023-04-16T09:19:21;102428.41;;;9.15;100.00
65758;BME280;52495;52.208;5.158;2023-04-16T09:21:48;102425.09;;;9.24;100.00
65758;BME280;52495;52.208;5.158;2023-04-16T09:24:15;102424.06;;;9.13;100.00
65758;BME280;52495;52.208;5.158;2023-04-16T09:26:42;102426.81;;;9.26;100.00
65758;BME280;52495;52.208;5.158;2023-04-16T09:29:09;102438.91;;;9.31;100.00
65758;BME280;52495;52.208;5.158;2023-04-16T09:31:36;102433.88;;;9.40;100.00
65758;BME280;52495;52.208;5.158;2023-04-16T09:34:05;102439.06;;;9.43;100.00
65758;BME280;52495;52.208;5.158;2023-04-16T09:36:32;102441.66;;;9.43;100.00
65758;BME280;52495;52.208;5.158;2023-04-16T09:39:00;102452.00;;;9.46;100.00
65758;BME280;52495;52.208;5.158;2023-04-16T09:41:29;102443.44;;;9.47;100.00
65758;BME280;52495;52.208;5.158;2023-04-16T09:43:57;102445.16;;;9.47;100.00
65758;BME280;52495;52.208;5.158;2023-04-16T09:46:28;102452.91;;;9.48;100.00
65758;BME280;52495;52.208;5.158;2023-04-16T09:48:55;102452.91;;;9.48;100.00
65758;BME280;52495;52.208;5.158;2023-04-16T09:51:23;102459.78;;;9.49;100.00
65758;BME280;52495;52.208;5.158;2023-04-16T09:53:51;102452.00;;;9.46;100.00
65758;BME280;52495;52.208;5.158;2023-04-16T09:56:23;102458.63;;;9.27;100.00
65758;BME280;52495;52.208;5.158;2023-04-16T09:58:55;102451.91;;;9.38;100.00
65758;BME280;52495;52.208;5.158;2023-04-16T10:01:23;102458.06;;;9.48;100.00
65758;BME280;52495;52.208;5.158;2023-04-16T10:03:52;102458.06;;;9.47;100.00
65758;BME280;52495;52.208;5.158;2023-04-16T10:06:22;102450.31;;;9.48;100.00
65758;BME280;52495;52.208;5.158;2023-04-16T10:08:52;102459.75;;;9.46;100.00
65758;BME280;52495;52.208;5.158;2023-04-16T10:11:21;102462.38;;;9.49;100.00
65758;BME280;52495;52.208;5.158;2023-04-16T10:13:49;102452.09;;;9.52;100.00
65758;BME280;52495;52.208;5.158;2023-04-16T10:16:16;102464.16;;;9.53;100.00
65758;BME280;52495;52.208;5.158;2023-04-16T10:18:44;102465.91;;;9.57;100.00
65758;BME280;52495;52.208;5.158;2023-04-16T10:21:11;102468.47;;;9.57;100.00
65758;BME280;52495;52.208;5.158;2023-04-16T10:23:41;102465.94;;;9.59;100.00
65758;BME280;52495;52.208;5.158;2023-04-16T10:26:08;102463.47;;;9.67;100.00
65758;BME280;52495;52.208;5.158;2023-04-16T10:28:36;102458.25;;;9.65;100.00
65758;BME280;52495;52.208;5.158;2023-04-16T10:31:04;102463.50;;;9.70;100.00
65758;BME280;52495;52.208;5.158;2023-04-16T10:33:34;102466.19;;;9.79;100.00
65758;BME280;52495;52.208;5.158;2023-04-16T10:36:11;102455.81;;;9.73;100.00
65758;BME280;52495;52.208;5.158;2023-04-16T10:38:44;102466.13;;;9.76;99.54
65758;BME280;52495;52.208;5.158;2023-04-16T10:41:11;102467.91;;;9.80;98.79
65758;BME280;52495;52.208;5.158;2023-04-16T10:43:40;102476.47;;;9.76;99.85
65758;BME280;52495;52.208;5.158;2023-04-16T10:46:20;102470.41;;;9.74;100.00
65758;BME280;52495;52.208;5.158;2023-04-16T10:48:48;102464.16;;;9.55;100.00
65758;BME280;52495;52.208;5.158;2023-04-16T10:51:27;102465.19;;;9.68;100.00
65758;BME280;52495;52.208;5.158;2023-04-16T10:53:57;102478.03;;;9.63;100.00
65758;BME280;52495;52.208;5.158;2023-04-16T10:56:30;102472.97;;;9.72;100.00
65758;BME280;52495;52.208;5.158;2023-04-16T10:58:58;102464.44;;;9.78;100.00
65758;BME280;52495;52.208;5.158;2023-04-16T11:01:32;102483.22;;;9.66;100.00
65758;BME280;52495;52.208;5.158;2023-04-16T11:04:01;102473.06;;;9.79;100.00
65758;BME280;52495;52.208;5.158;2023-04-16T11:06:59;102475.78;;;9.90;99.78
65758;BME280;52495;52.208;5.158;2023-04-16T11:09:45;102473.13;;;9.85;99.56
65758;BME280;52495;52.208;5.158;2023-04-16T11:12:15;102481.81;;;9.92;99.46
65758;BME280;52495;52.208;5.158;2023-04-16T11:14:46;102466.13;;;9.75;100.00
65758;BME280;52495;52.208;5.158;2023-04-16T11:17:13;102476.56;;;9.82;99.11
65758;BME280;52495;52.208;5.158;2023-04-16T11:19:41;102485.19;;;9.86;100.00
65758;BME280;52495;52.208;5.158;2023-04-16T11:22:10;102470.56;;;9.85;100.00
65758;BME280;52495;52.208;5.158;2023-04-16T11:24:37;102475.72;;;9.85;99.74
65758;BME280;52495;52.208;5.158;2023-04-16T11:27:06;102480.00;;;9.84;100.00
65758;BME280;52495;52.208;5.158;2023-04-16T11:29:33;102483.41;;;9.80;100.00
65758;BME280;52495;52.208;5.158;2023-04-16T11:32:00;102483.56;;;9.94;99.82
65758;BME280;52495;52.208;5.158;2023-04-16T11:34:27;102461.91;;;9.83;100.00
65758;BME280;52495;52.208;5.158;2023-04-16T11:36:54;102479.44;;;10.07;99.46
65758;BME280;52495;52.208;5.158;2023-04-16T11:39:21;102480.38;;;10.15;97.82
65758;BME280;52495;52.208;5.158;2023-04-16T11:41:49;102483.63;;;9.99;99.14
65758;BME280;52495;52.208;5.158;2023-04-16T11:44:20;102483.50;;;9.88;99.54
65758;BME280;52495;52.208;5.158;2023-04-16T11:46:47;102487.59;;;9.72;99.31
65758;BME280;52495;52.208;5.158;2023-04-16T11:49:14;102485.31;;;9.97;98.48
65758;BME280;52495;52.208;5.158;2023-04-16T11:51:42;102484.41;;;9.93;99.00
65758;BME280;52495;52.208;5.158;2023-04-16T11:54:17;102486.03;;;9.83;100.00
65758;BME280;52495;52.208;5.158;2023-04-16T11:56:46;102495.75;;;10.06;99.48
65758;BME280;52495;52.208;5.158;2023-04-16T11:59:14;102486.19;;;9.97;99.61
65758;BME280;52495;52.208;5.158;2023-04-16T12:01:45;102490.53;;;10.01;98.33
65758;BME280;52495;52.208;5.158;2023-04-16T12:04:13;102495.78;;;10.08;98.26
65758;BME280;52495;52.208;5.158;2023-04-16T12:06:40;102497.50;;;10.10;98.14
65758;BME280;52495;52.208;5.158;2023-04-16T12:09:24;102494.25;;;10.25;97.19
65758;BME280;52495;52.208;5.158;2023-04-16T12:11:51;102498.53;;;10.22;97.67
65758;BME280;52495;52.208;5.158;2023-04-16T12:14:19;102497.72;;;10.27;97.50
65758;BME280;52495;52.208;5.158;2023-04-16T12:16:47;102491.56;;;10.16;97.98
65758;BME280;52495;52.208;5.158;2023-04-16T12:19:14;102502.84;;;10.26;98.01
65758;BME280;52495;52.208;5.158;2023-04-16T12:21:42;102498.66;;;10.36;97.00
65758;BME280;52495;52.208;5.158;2023-04-16T12:24:10;102502.66;;;10.07;97.83
65758;BME280;52495;52.208;5.158;2023-04-16T12:26:39;102497.59;;;10.15;98.73
65758;BME280;52495;52.208;5.158;2023-04-16T12:29:16;102500.38;;;10.35;96.46
65758;BME280;52495;52.208;5.158;2023-04-16T12:31:44;102495.19;;;10.32;96.81
65758;BME280;52495;52.208;5.158;2023-04-16T12:34:12;102497.91;;;10.44;96.07
65758;BME280;52495;52.208;5.158;2023-04-16T12:36:39;102497.63;;;10.20;96.59
65758;BME280;52495;52.208;5.158;2023-04-16T12:39:07;102488.50;;;10.48;95.90
65758;BME280;52495;52.208;5.158;2023-04-16T12:41:36;102490.06;;;10.37;96.69
65758;BME280;52495;52.208;5.158;2023-04-16T12:44:07;102486.72;;;10.45;96.70
65758;BME280;52495;52.208;5.158;2023-04-16T12:46:38;102492.81;;;10.52;95.70
65758;BME280;52495;52.208;5.158;2023-04-16T12:49:04;102485.00;;;10.44;95.32
65758;BME280;52495;52.208;5.158;2023-04-16T12:51:33;102496.06;;;10.34;96.55
65758;BME280;52495;52.208;5.158;2023-04-16T12:54:00;102491.25;;;10.67;94.73
65758;BME280;52495;52.208;5.158;2023-04-16T12:56:27;102492.13;;;10.72;94.78